createdAt,value
2023-07-25T10:38:44.713Z,68.8
2023-07-25T10:44:20.054Z,70.7
2023-07-25T10:49:55.597Z,68.3
2023-07-25T10:55:32.201Z,68
2023-07-25T11:01:08.484Z,69.4
2023-07-25T11:06:45.561Z,68.6
2023-07-25T11:12:21.084Z,68.3
2023-07-25T11:17:56.966Z,68.1
2023-07-25T11:23:32.956Z,71.3
2023-07-25T11:29:08.510Z,72
2023-07-25T11:34:44.243Z,70
2023-07-25T11:40:21.552Z,68.9
2023-07-25T11:45:58.367Z,73.7
2023-07-25T11:51:34.665Z,70.5
2023-07-25T11:57:13.750Z,65.9
2023-07-25T12:02:51.187Z,60.8
2023-07-25T12:08:28.006Z,60.5
2023-07-25T12:14:04.520Z,63.2
2023-07-25T12:19:39.375Z,61.9
2023-07-25T12:25:14.888Z,61
2023-07-25T12:30:51.528Z,59.6
2023-07-25T12:36:27.353Z,57.4
2023-07-25T12:42:04.191Z,55.4
2023-07-25T12:47:45.358Z,57.2
2023-07-25T12:53:21.346Z,51.7
2023-07-25T12:58:56.872Z,53.6
2023-07-25T13:04:33.613Z,55.8
2023-07-25T13:10:10.881Z,56.9
2023-07-25T13:15:47.268Z,52
2023-07-25T13:21:23.290Z,49
2023-07-25T13:27:00.658Z,44
2023-07-25T13:32:37.287Z,35.6
2023-07-25T13:38:14.063Z,35.6
2023-07-25T13:43:50.764Z,28.5
2023-07-25T13:49:25.960Z,40.8
2023-07-25T13:55:00.943Z,48.7
2023-07-25T14:00:37.041Z,54.2
2023-07-25T14:06:13.410Z,63.6
2023-07-25T14:11:49.184Z,71.4
2023-07-25T14:17:25.728Z,73.2
2023-07-25T14:23:01.920Z,71.9
2023-07-25T14:28:37.743Z,73.6
2023-07-25T14:34:14.903Z,73.1
2023-07-25T14:39:51.444Z,70.6
2023-07-25T14:45:27.228Z,63.5
2023-07-25T14:51:04.277Z,67
2023-07-25T14:56:40.610Z,65.5
2023-07-25T15:02:19.074Z,62.5
2023-07-25T15:07:54.797Z,63.8
2023-07-25T15:13:31.130Z,63.9
2023-07-25T15:19:06.719Z,65.6
2023-07-25T15:24:42.603Z,67.9
2023-07-25T15:30:18.645Z,62.9
2023-07-25T15:35:54.879Z,64
2023-07-25T15:41:30.857Z,68.4
2023-07-25T15:47:10.064Z,67.1
2023-07-25T15:52:45.246Z,67
2023-07-25T15:58:20.785Z,62.9
2023-07-25T16:03:56.507Z,65.9
2023-07-25T16:09:32.359Z,65.3
2023-07-25T16:15:08.558Z,65.7
2023-07-25T16:20:45.237Z,66.2
2023-07-25T16:26:21.024Z,66.7
2023-07-25T16:31:57.388Z,63.4
2023-07-25T16:37:33.524Z,54.5
2023-07-25T16:43:09.351Z,49.7
2023-07-25T16:48:44.567Z,58.3
2023-07-25T16:54:20.813Z,60.8
2023-07-25T16:59:57.294Z,64.3
2023-07-25T17:05:32.788Z,61
2023-07-25T17:11:08.576Z,62.3
2023-07-25T17:16:43.711Z,61.2
2023-07-25T17:22:19.569Z,61.5
2023-07-25T17:27:56.384Z,61
2023-07-25T17:33:32.363Z,60
2023-07-25T17:39:07.449Z,60.9
2023-07-25T17:44:43.382Z,63.4
2023-07-25T17:50:18.872Z,69.2
2023-07-25T17:55:54.673Z,68.8
2023-07-25T18:01:32.024Z,66.3
2023-07-25T18:07:10.532Z,70.3
2023-07-25T18:12:46.096Z,69.6
2023-07-25T18:18:21.861Z,73.8
2023-07-25T18:23:58.128Z,74.8
2023-07-25T18:29:33.970Z,75.3
2023-07-25T18:35:10.719Z,76
2023-07-25T18:40:46.481Z,79.1
2023-07-25T18:46:22.305Z,81
2023-07-25T18:51:58.545Z,81.5
2023-07-25T18:57:34.632Z,83.2
2023-07-25T19:03:10.331Z,83.7
2023-07-25T19:08:47.825Z,83.1
2023-07-25T19:14:23.591Z,84.7
2023-07-25T19:19:59.712Z,83
2023-07-25T19:25:35.449Z,83.3
2023-07-25T19:31:11.299Z,84
2023-07-25T19:36:47.042Z,87.1
2023-07-25T19:42:22.995Z,87
2023-07-25T19:47:58.896Z,87.4
2023-07-25T19:53:34.620Z,86.5
2023-07-25T19:59:10.932Z,85.8
2023-07-25T20:04:46.725Z,86.8
2023-07-25T20:10:22.217Z,85.4
2023-07-25T20:15:59.272Z,86.8
2023-07-25T20:21:34.652Z,87.9
2023-07-25T20:27:11.202Z,88.1
2023-07-25T20:32:47.885Z,88.6
2023-07-25T20:38:24.423Z,89.4
2023-07-25T20:44:00.864Z,87.7
2023-07-25T20:49:37.320Z,88.3
2023-07-25T20:55:13.088Z,89.3
2023-07-25T21:00:48.413Z,87.5
2023-07-25T21:06:24.646Z,87.6
2023-07-25T21:12:01.227Z,86.3
2023-07-25T21:17:37.362Z,86.2
2023-07-25T21:23:14.069Z,86.4
2023-07-25T21:28:49.998Z,87
2023-07-25T21:34:26.500Z,86.7
2023-07-25T21:40:02.130Z,86.4
2023-07-25T21:45:37.788Z,86.2
2023-07-25T21:51:12.913Z,86.2
2023-07-25T21:56:51.681Z,85.8
2023-07-25T22:02:30.209Z,86.3
2023-07-25T22:08:06.936Z,87.4
2023-07-25T22:13:42.957Z,87.6
2023-07-25T22:19:18.154Z,87.7
2023-07-25T22:24:53.552Z,87
2023-07-25T22:30:29.249Z,86.6
2023-07-25T22:36:04.110Z,86.6
2023-07-25T22:41:39.662Z,86.5
2023-07-25T22:47:14.985Z,86.2
2023-07-25T22:52:49.659Z,86.1
2023-07-25T22:58:25.684Z,86
2023-07-25T23:04:00.462Z,86.8
2023-07-25T23:09:35.829Z,86.8
2023-07-25T23:15:10.947Z,86.2
2023-07-25T23:20:46.736Z,86.9
2023-07-25T23:26:22.426Z,86.6
2023-07-25T23:31:58.013Z,87
2023-07-25T23:37:33.946Z,88.3
2023-07-25T23:43:10.045Z,88
2023-07-25T23:48:46.240Z,87.5
2023-07-25T23:54:22.916Z,87.7
2023-07-25T23:59:59.304Z,88.1
